Latest Weather Observations for Brisbane Airport

IDQ60901

Issued at 5:51 pm EST Tuesday 26 May 2020 (issued every 10 minutes, with the page automatically refreshed every 10 minutes)

About weather observations | Map of Brisbane area stations | Latest observations for Brisbane area | Other Formats
Station Details ID: 040842 Name: BRISBANE AERO Lat: -27.39 Lon: 153.13 Height: 4.51 m
Data from the previous 72 hours. | See also: Recent months at Brisbane Airport
Date/Time
EST
Temp
°C
App
Temp
°C
Dew
Point
°C
Rel
Hum
%
Delta-T
°C
Wind Press
QNH
hPa
Press
MSL
hPa
Rain since
9am
mm
Dir  Spd
km/h
Gust
km/h
Spd
kts
Gust
kts
26/05:30pm 16.8 16.0 13.0 78 2.1 N 9 11 5 6 1017.3 1017.3 0.0
26/05:00pm 17.6 16.2 13.3 76 2.4 NNE 13 17 7 9 1017.0 1017.0 0.0
26/04:30pm 19.8 17.9 12.9 64 3.9 NNE 15 19 8 10 1016.6 1016.6 0.0
26/04:00pm 20.5 17.7 8.7 46 6.2 NNE 13 17 7 9 1016.2 1016.2 0.0
26/03:30pm 21.5 18.5 7.6 40 7.2 NNE 13 15 7 8 1016.1 1016.1 0.0
26/03:00pm 22.0 18.2 5.9 35 8.1 NNE 15 19 8 10 1015.9 1015.9 0.0
26/02:30pm 22.1 18.8 9.7 45 6.7 NNE 17 19 9 10 1016.1 1016.1 0.0
26/02:00pm 21.8 18.4 9.3 45 6.7 NNE 17 20 9 11 1016.1 1016.1 0.0
26/01:30pm 23.6 19.5 4.3 28 9.5 NNE 15 17 8 9 1016.1 1016.1 0.0
26/01:00pm 23.5 20.6 4.5 29 9.4 WSW 9 15 5 8 1016.3 1016.3 0.0
26/12:30pm 23.0 19.1 3.3 27 9.5 SW 13 19 7 10 1016.6 1016.6 0.0
26/12:00pm 22.7 18.7 3.0 27 9.4 SW 13 26 7 14 1017.0 1017.0 0.0
26/11:30am 22.4 18.4 2.8 27 9.3 SW 13 19 7 10 1017.5 1017.5 0.0
26/11:00am 21.7 18.0 4.5 32 8.4 SW 13 19 7 10 1018.1 1018.0 0.0
26/10:30am 21.1 17.1 4.7 34 8.0 SW 15 22 8 12 1018.4 1018.3 0.0
26/10:00am 20.9 18.1 5.3 36 7.7 SW 9 15 5 8 1018.7 1018.6 0.0
26/09:30am 19.7 16.9 7.0 43 6.4 WSW 11 15 6 8 1018.8 1018.7 0.0
26/09:00am 18.5 14.8 6.1 44 6.1 WSW 15 19 8 10 1018.7 1018.6 0.0
26/08:30am 17.1 14.8 7.5 53 4.8 W 9 17 5 9 1018.6 1018.5 0.0
26/08:00am 15.2 13.2 8.7 65 3.3 W 9 11 5 6 1018.5 1018.4 0.0
26/07:30am 12.3 9.6 8.9 80 1.7 W 13 15 7 8 1018.2 1018.1 0.0
26/07:00am 9.9 7.8 6.7 80 1.5 W 7 11 4 6 1017.8 1017.8 0.0
26/06:30am 10.2 8.0 6.1 76 1.9 W 7 9 4 5 1017.5 1017.5 0.0
26/06:00am 10.1 8.1 6.2 77 1.8 W 6 7 3 4 1017.2 1017.2 0.0
26/05:30am 10.5 9.7 6.4 76 1.9 CALM 0 0 0 0 1016.8 1016.8 0.0
26/05:00am 10.0 8.1 6.8 80 1.5 W 6 9 3 5 1016.6 1016.6 0.0
26/04:30am 10.3 8.1 6.4 77 1.8 SSW 7 9 4 5 1016.5 1016.5 0.0
26/04:00am 10.4 9.7 7.0 79 1.6 CALM 0 0 0 0 1016.4 1016.4 0.0
26/03:30am 10.6 9.6 7.2 79 1.6 NW 2 7 1 4 1016.3 1016.3 0.0
26/03:00am 11.8 8.6 7.0 72 2.3 NW 13 15 7 8 1016.4 1016.4 0.0
26/02:30am 11.2 8.8 7.0 75 2.0 NNW 9 11 5 6 1016.6 1016.6 0.0
26/02:00am 10.4 8.0 7.2 80 1.5 NNW 9 11 5 6 1016.7 1016.7 0.0
26/01:30am 11.2 9.5 7.7 79 1.7 N 6 7 3 4 1016.7 1016.7 0.0
26/01:00am 12.6 10.7 7.7 72 2.4 N 7 9 4 5 1016.7 1016.7 0.0
26/12:30am 13.4 11.8 8.6 73 2.4 NNE 7 9 4 5 1016.7 1016.7 0.0
26/12:00am 13.0 11.6 9.7 80 1.7 NNW 7 7 4 4 1016.4 1016.4 0.0
 
Date/Time
EST
Temp
°C
App
Temp
°C
Dew
Point
°C
Rel
Hum
%
Delta-T
°C
Wind Press
QNH
hPa
Press
MSL
hPa
Rain since
9am
mm
Dir  Spd
km/h
Gust
km/h
Spd
kts
Gust
kts
25/11:30pm 13.7 12.5 10.2 79 1.8 WNW 7 9 4 5 1016.4 1016.4 0.0
25/11:00pm 13.8 12.0 10.7 81 1.6 NW 11 13 6 7 1016.3 1016.3 0.0
25/10:30pm 13.8 12.1 9.9 77 2.0 NNW 9 11 5 6 1016.3 1016.3 0.0
25/10:00pm 13.5 11.4 11.0 85 1.3 NNW 13 15 7 8 1016.2 1016.2 0.0
25/09:30pm 14.2 12.4 10.8 80 1.8 N 11 15 6 8 1016.3 1016.3 0.0
25/09:00pm 14.2 12.8 11.0 81 1.7 N 9 11 5 6 1016.2 1016.2 0.0
25/08:30pm 16.2 14.8 11.0 71 2.8 NW 9 11 5 6 1015.9 1015.9 0.0
25/08:00pm 15.0 13.9 10.8 76 2.2 NW 7 11 4 6 1016.0 1016.0 0.0
25/07:30pm 15.4 14.5 11.5 77 2.1 NNW 7 9 4 5 1015.8 1015.8 0.0
25/07:00pm 15.8 13.6 12.1 78 2.0 N 15 17 8 9 1015.5 1015.5 0.0
25/06:30pm 15.1 14.5 13.5 90 0.9 NNE 9 11 5 6 1015.1 1015.1 0.0
25/06:00pm 15.4 15.2 13.1 86 1.3 NE 6 7 3 4 1014.8 1014.8 0.0
25/05:30pm 15.8 15.3 12.7 82 1.7 NE 7 7 4 4 1014.5 1014.5 0.0
25/05:00pm 17.1 16.1 12.4 74 2.6 NNE 9 11 5 6 1014.3 1014.3 0.0
25/04:30pm 19.4 18.0 12.2 63 4.0 NNE 11 15 6 8 1014.0 1014.0 0.0
25/04:00pm 21.0 18.1 9.8 48 6.0 NNE 15 17 8 9 1013.8 1013.8 0.0
25/03:30pm 21.5 18.8 9.1 45 6.6 NNE 13 15 7 8 1013.5 1013.5 0.0
25/03:00pm 21.5 18.5 9.3 45 6.5 NNE 15 17 8 9 1013.5 1013.5 0.0
25/02:30pm 22.1 18.6 10.2 46 6.5 NNE 19 22 10 12 1013.5 1013.5 0.0
25/02:00pm 22.0 18.8 10.0 46 6.5 NE 17 19 9 10 1013.4 1013.4 0.0
25/01:30pm 22.9 19.7 8.6 40 7.6 NE 15 19 8 10 1013.3 1013.3 0.0
25/01:00pm 22.8 20.9 7.4 37 8.0 SSW 7 17 4 9 1013.4 1013.4 0.0
25/12:30pm 22.3 19.9 7.2 37 7.8 WSW 9 15 5 8 1013.8 1013.8 0.0
25/12:00pm 22.0 19.0 7.8 40 7.4 SW 13 20 7 11 1014.3 1014.3 0.0
25/11:30am 21.5 18.2 8.1 42 7.0 SW 15 20 8 11 1014.7 1014.7 0.0
25/11:00am 20.5 16.4 7.9 44 6.5 SW 19 24 10 13 1015.0 1015.0 0.0
25/10:30am 20.1 16.4 7.9 45 6.3 SW 17 24 9 13 1015.3 1015.3 0.0
25/10:00am 19.5 15.5 8.3 48 5.8 SW 19 26 10 14 1015.8 1015.8 0.0
25/09:30am 18.9 15.2 8.0 49 5.6 SW 17 24 9 13 1016.0 1016.0 0.0
25/09:00am 17.8 14.2 8.2 53 4.9 SW 17 22 9 12 1015.9 1015.9 0.0
25/08:30am 16.6 13.9 8.8 60 4.0 SSW 13 17 7 9 1015.7 1015.7 0.0
25/08:00am 14.9 12.2 9.0 68 3.0 SW 13 15 7 8 1015.6 1015.6 0.0
25/07:30am 12.9 10.8 9.8 81 1.6 SW 11 13 6 7 1015.1 1015.1 0.0
25/07:00am 10.1 7.2 8.2 88 0.9 SW 13 15 7 8 1014.8 1014.8 0.0
25/06:30am 10.2 7.6 7.7 84 1.2 SW 11 13 6 7 1014.2 1014.2 0.0
25/06:00am 10.2 8.4 7.9 86 1.1 SW 7 7 4 4 1014.1 1014.1 0.0
25/05:30am 9.4 7.6 7.3 87 1.0 SW 6 7 3 4 1013.8 1013.8 0.0
25/05:00am 10.3 8.4 7.4 82 1.4 SW 7 9 4 5 1013.3 1013.3 0.0
25/04:30am 9.6 7.9 7.7 88 0.9 WNW 6 7 3 4 1013.1 1013.1 0.0
25/04:00am 10.2 7.9 7.5 83 1.3 NW 9 9 5 5 1013.2 1013.2 0.0
25/03:30am 9.9 8.3 7.8 87 1.0 W 6 7 3 4 1012.8 1012.8 0.0
25/03:00am 9.8 7.9 7.5 85 1.1 NW 7 9 4 5 1012.9 1012.9 0.0
25/02:30am 10.3 9.7 7.6 83 1.3 CALM 0 0 0 0 1012.7 1012.7 0.0
25/02:00am 12.6 10.9 7.5 71 2.5 W 6 9 3 5 1012.8 1012.8 0.0
25/01:30am 11.9 9.6 7.6 75 2.1 N 9 11 5 6 1012.7 1012.7 0.0
25/01:00am 12.6 9.2 7.5 71 2.5 W 15 17 8 9 1012.5 1012.5 0.0
25/12:30am 11.4 8.7 7.5 77 1.9 W 11 15 6 8 1012.4 1012.4 0.0
25/12:00am 12.1 8.2 7.1 71 2.4 WSW 17 17 9 9 1012.4 1012.4 0.0
 
Date/Time
EST
Temp
°C
App
Temp
°C
Dew
Point
°C
Rel
Hum
%
Delta-T
°C
Wind Press
QNH
hPa
Press
MSL
hPa
Rain since
9am
mm
Dir  Spd
km/h
Gust
km/h
Spd
kts
Gust
kts
24/11:30pm 12.9 9.4 7.3 69 2.7 WSW 15 20 8 11 1012.7 1012.7 0.0
24/11:00pm 13.7 9.4 6.9 63 3.3 WSW 19 24 10 13 1012.7 1012.7 0.0
24/10:30pm 13.9 8.6 6.6 61 3.5 WSW 24 32 13 17 1012.8 1012.8 0.0
24/10:00pm 14.3 9.4 6.7 60 3.7 WSW 22 32 12 17 1012.8 1012.8 0.0
24/09:30pm 14.3 9.0 6.7 60 3.7 WSW 24 32 13 17 1012.7 1012.7 0.0
24/09:00pm 14.2 8.9 6.8 61 3.6 W 24 33 13 18 1012.6 1012.6 0.0
24/08:30pm 14.5 10.0 6.9 60 3.7 W 20 26 11 14 1012.1 1012.1 0.0
24/08:00pm 14.5 10.0 6.9 60 3.7 WSW 20 30 11 16 1011.8 1011.8 0.0
24/07:30pm 14.9 10.0 6.9 58 3.9 W 22 28 12 15 1011.6 1011.6 0.0
24/07:00pm 15.3 10.4 7.0 57 4.1 WSW 22 28 12 15 1011.5 1011.5 0.0
24/06:30pm 15.8 11.8 6.6 54 4.5 W 17 22 9 12 1011.4 1011.4 0.0
24/06:00pm 16.0 11.6 6.6 53 4.6 W 19 24 10 13 1011.0 1011.0 0.0
24/05:30pm 16.4 12.3 6.4 51 4.9 W 17 26 9 14 1010.6 1010.6 0.0
24/05:00pm 16.7 11.3 6.5 51 5.0 W 24 33 13 18 1010.3 1010.3 0.0
24/04:30pm 17.6 11.4 6.2 47 5.6 W 28 35 15 19 1010.0 1010.0 0.0
24/04:00pm 18.4 12.2 6.0 44 6.1 WNW 28 33 15 18 1009.5 1009.5 0.0
24/03:30pm 19.3 13.4 5.7 41 6.7 WSW 26 35 14 19 1009.2 1009.2 0.0
24/03:00pm 20.0 14.5 5.7 39 7.1 W 24 33 13 18 1009.1 1009.1 0.0
24/02:30pm 19.8 13.9 5.6 39 7.0 W 26 33 14 18 1009.3 1009.3 0.0
24/02:00pm 20.2 15.0 5.4 38 7.3 W 22 30 12 16 1009.3 1009.3 0.0
24/01:30pm 19.8 14.9 5.1 38 7.2 W 20 28 11 15 1009.5 1009.5 0.0
24/01:00pm 19.7 14.8 4.9 37 7.2 W 20 30 11 16 1009.7 1009.7 0.0
24/12:30pm 19.3 13.9 4.3 37 7.2 W 22 32 12 17 1010.0 1010.0 0.0
24/12:00pm 19.2 14.3 5.0 39 6.9 WSW 20 28 11 15 1010.3 1010.3 0.0
24/11:30am 19.1 14.4 5.1 39 6.8 WSW 19 28 10 15 1010.7 1010.7 0.0
24/11:00am 18.2 13.3 4.9 41 6.4 W 20 32 11 17 1010.9 1010.9 0.0
24/10:30am 17.6 11.9 4.9 43 6.1 WSW 24 33 13 18 1011.0 1011.0 0.0
24/10:00am 17.1 11.0 4.7 44 5.9 WSW 26 32 14 17 1011.1 1011.1 0.0
24/09:30am 15.8 9.2 4.2 46 5.4 WSW 28 33 15 18 1011.2 1011.2 0.0
24/09:00am 15.3 9.1 4.3 48 5.1 WSW 26 33 14 18 1011.1 1011.1 0.0
24/08:30am 14.0 7.8 4.2 51 4.5 WSW 26 33 14 18 1010.9 1010.9 0.0
24/08:00am 12.9 7.8 4.1 55 4.0 WSW 20 30 11 16 1010.9 1010.9 0.0
24/07:30am 11.9 7.4 4.1 59 3.5 WSW 17 20 9 11 1010.6 1010.6 0.0
24/07:00am 10.5 7.1 4.2 65 2.8 WSW 11 15 6 8 1010.7 1010.7 0.0
24/06:30am 9.9 5.4 4.0 67 2.6 WSW 17 22 9 12 1010.3 1010.3 0.0
24/06:00am 10.8 6.2 3.5 60 3.2 WSW 17 26 9 14 1009.9 1009.9 0.0
24/05:30am 10.5 5.3 3.7 63 3.0 WSW 20 28 11 15 1009.6 1009.6 0.0
24/05:00am 10.7 4.7 3.4 60 3.2 WSW 24 32 13 17 1009.3 1009.3 0.0
24/04:30am 10.2 5.0 3.3 62 3.0 WSW 20 28 11 15 1009.3 1009.3 0.0
24/04:00am 10.3 4.7 3.2 61 3.1 WSW 22 28 12 15 1009.4 1009.4 0.0
24/03:30am 10.4 4.7 3.0 60 3.2 W 22 28 12 15 1009.7 1009.7 0.0
24/03:00am 10.5 4.8 2.9 59 3.3 W 22 30 12 16 1009.8 1009.8 0.0
24/02:30am 10.8 5.4 2.4 56 3.6 WSW 20 26 11 14 1009.7 1009.7 0.0
24/02:00am 10.3 5.0 2.9 60 3.2 W 20 30 11 16 1009.7 1009.7 0.0
24/01:30am 10.5 5.1 2.6 58 3.4 WSW 20 26 11 14 1009.9 1009.9 0.0
24/01:00am 10.5 4.4 2.6 58 3.4 WSW 24 30 13 16 1009.9 1009.9 0.0
24/12:30am 10.6 4.8 2.4 57 3.5 WSW 22 30 12 16 1010.0 1010.0 0.0
24/12:00am 10.9 5.7 2.5 56 3.6 WSW 19 26 10 14 1010.1 1010.1 0.0
 
Date/Time
EST
Temp
°C
App
Temp
°C
Dew
Point
°C
Rel
Hum
%
Delta-T
°C
Wind Press
QNH
hPa
Press
MSL
hPa
Rain since
9am
mm
Dir  Spd
km/h
Gust
km/h
Spd
kts
Gust
kts
23/11:30pm 10.7 4.6 2.6 57 3.5 WSW 24 33 13 18 1010.1 1010.1 0.0
23/11:00pm 11.7 4.7 2.2 52 4.1 WSW 28 37 15 20 1010.7 1010.7 0.0
23/10:30pm 11.6 5.9 2.6 54 3.9 WSW 22 30 12 16 1010.9 1010.9 0.0
23/10:00pm 11.6 5.5 2.6 54 3.9 WSW 24 32 13 17 1011.0 1011.0 0.0
23/09:30pm 12.2 5.3 2.6 52 4.2 W 28 33 15 18 1010.5 1010.5 0.0
23/09:00pm 12.6 5.7 2.5 50 4.4 W 28 39 15 21 1010.9 1010.9 0.0
23/08:30pm 12.8 5.5 2.5 49 4.5 WSW 30 35 16 19 1010.4 1010.4 0.0
23/08:00pm 12.8 6.0 3.1 51 4.3 W 28 33 15 18 1009.9 1009.9 0.0
23/07:30pm 13.0 7.3 3.1 51 4.4 W 22 30 12 16 1009.9 1009.9 0.0
23/07:00pm 13.4 8.1 2.8 48 4.7 W 20 30 11 16 1009.6 1009.6 0.0
23/06:30pm 13.7 9.4 3.2 49 4.7 W 15 22 8 12 1009.5 1009.5 0.0
23/06:00pm 13.7 9.5 3.8 51 4.5 W 15 20 8 11 1009.2 1009.2 0.0

Latest Capital City Observations: Canberra | Sydney | Melbourne | Brisbane | Adelaide | Perth | Hobart | Darwin

Other formats

Comma delimited format used in spreadsheet applications
http://www.bom.gov.au/fwo/IDQ60901/IDQ60901.94578.axf

JavaScript Object Notation format (JSON) in row-major order
http://www.bom.gov.au/fwo/IDQ60901/IDQ60901.94578.json

Data quality

Most of these data are generated automatically and are frequently updated. Quality checks on data are not normally performed. It is possible for incorrect values to appear. Refer to information at About Latest Weather Observations and please check the disclaimer before using these data.